This is the latest recevied weather packets stored in our database for station/object KC0AFB. If no packets are shown the sender has not sent any weather packets the latest 1 day(s).
| Time | Temp. | Humidity | Pressure | Rain* | Wind** | Luminosity | Snow |
|---|---|---|---|---|---|---|---|
| 1778054974 | -2.78° C | 74% | 1017.4 hPa | 0 mm | - | 0 W/m² | - |
| 1778054066 | -1.67° C | 70% | 1017.5 hPa | 0 mm | - | 0 W/m² | - |
| 1778052855 | -1.11° C | 68% | 1017.3 hPa | 0 mm | - | 0 W/m² | - |
| 1778052552 | -1.11° C | 67% | 1017.4 hPa | 0 mm | - | 0 W/m² | - |
| 1778052249 | -1.11° C | 67% | 1017.6 hPa | 0 mm | - | 0 W/m² | - |
| 1778051948 | -1.11° C | 68% | 1017.5 hPa | 0 mm | - | 0 W/m² | - |
| 1778051645 | -1.11° C | 69% | 1017.5 hPa | 0 mm | - | 0 W/m² | - |
| 1778051038 | -1.67° C | 71% | 1017.3 hPa | 0 mm | - | 0 W/m² | - |
| 1778050735 | -1.67° C | 71% | 1017.8 hPa | 0 mm | - | 0 W/m² | - |
| 1778050433 | -1.67° C | 71% | 1017.5 hPa | 0 mm | - | 0 W/m² | - |
| 1778049824 | -1.67° C | 69% | 1017.4 hPa | 0 mm | - | 0 W/m² | - |
| 1778049220 | -1.11° C | 69% | 1017.4 hPa | 0 mm | - | 0 W/m² | - |
| 1778048918 | -1.11° C | 69% | 1017.6 hPa | 0 mm | - | 0 W/m² | - |
| 1778048311 | -1.11° C | 67% | 1017.3 hPa | 0 mm | - | 0 W/m² | - |
| 1778048008 | -1.11° C | 68% | 1017.4 hPa | 0 mm | - | 0 W/m² | - |
| 1778047404 | -1.67° C | 67% | 1017.5 hPa | 0 mm | - | 0 W/m² | - |
| 1778047100 | -1.11° C | 67% | 1017.3 hPa | 0 mm | - | 0 W/m² | - |
| 1778046191 | -0.56° C | 64% | 1017.3 hPa | 0 mm | - | 0 W/m² | - |
| 1778045587 | 0° C | 63% | 1017.2 hPa | 0 mm | - | 0 W/m² | - |
| 1778045284 | 0° C | 63% | 1017.2 hPa | 0 mm | - | 0 W/m² | - |
| 1778044074 | 0° C | 61% | 1017.3 hPa | 0 mm | - | 0 W/m² | - |
| 1778043771 | 0° C | 62% | 1017.2 hPa | 0 mm | - | 0 W/m² | - |
| 1778043467 | 0° C | 62% | 1017.1 hPa | 0 mm | - | 0 W/m² | - |
| 1778043164 | -0.56° C | 63% | 1017.1 hPa | 0 mm | - | 0 W/m² | - |
| 1778042256 | -0.56° C | 62% | 1017.2 hPa | 0 mm | - | 0 W/m² | - |
* Rain latest hour (hover to see other rain measurements)
** Current wind speed in m/s (hover to see current wind gust speed)